Lockhart, Florida
Current Conditions -  °F | °C
As of 9:53 PM on Wednesday 22 Oct 2014 (Local Time) from KORL Reporting Station
Clear Clear  
Wind Chill: 71°   Ceiling: Unl
Heat Index: 71°   Visibility: 10mi
Dew Point: 61°   Wind: 7mph
Humidity: 70%   Direction: 40°NE
Pressure: 30.01"   Gusts: NA
Location:  28.62°N, 81.44°W
Report Text: KORL 230153Z AUTO 04006KT 10SM CLR 22/16 A3001 RMK AO2 SLP165 T02170161
Loading
Personal Weather Stations






























Interactive Weather Map
Tropical Storm Tracking
New forecast layout! Learn more

10-Day Weather Forecast

Advertisements
Track Severe Weather on mobile